Time;durP1;ratioP1;P1;durP2;ratioP2;P2;SDS_P1;SDS_P2;PMS_P1;PMS_P2;Temp;Humidity;BMP_temperature;BMP_pressure;BME280_temperature;BME280_humidity;BME280_pressure;Samples;Min_cycle;Max_cycle;Signal;HPM_P1;HPM_P2
2023/01/19 00:00:53;;;;;;;19.02;13.30;;;;;;;;;;5074465;28;20199;-65
2023/01/19 00:03:20;;;;;;;16.10;12.70;;;;;;;;;;5074131;28;20196;-65
2023/01/19 00:05:48;;;;;;;17.55;12.70;;;;;;;;;;5073968;28;20287;-65
2023/01/19 00:08:15;;;;;;;21.73;12.70;;;;;;;;;;5074307;28;20256;-65
2023/01/19 00:10:42;;;;;;;17.05;12.40;;;;;;;;;;5074213;28;20287;-65
2023/01/19 00:13:10;;;;;;;17.08;12.40;;;;;;;;;;5074255;28;20200;-65
2023/01/19 00:15:38;;;;;;;21.20;13.55;;;;;;;;;;5074129;28;20281;-65
2023/01/19 00:18:05;;;;;;;17.08;12.00;;;;;;;;;;5073765;28;20310;-65
2023/01/19 00:20:34;;;;;;;19.08;12.30;;;;;;;;;;5073739;28;20200;-66
2023/01/19 00:23:01;;;;;;;22.00;14.80;;;;;;;;;;5073744;28;20298;-66
2023/01/19 00:25:29;;;;;;;21.27;13.65;;;;;;;;;;5073986;28;20614;-66
2023/01/19 00:27:56;;;;;;;21.50;12.90;;;;;;;;;;5073975;28;20256;-66
2023/01/19 00:30:23;;;;;;;16.60;11.98;;;;;;;;;;5073815;28;20218;-66
2023/01/19 00:32:52;;;;;;;17.92;14.68;;;;;;;;;;5074710;28;20307;-66
2023/01/19 00:35:19;;;;;;;21.48;14.25;;;;;;;;;;5074286;28;20645;-66
2023/01/19 00:37:46;;;;;;;21.70;14.48;;;;;;;;;;5073785;28;20206;-66
2023/01/19 00:40:13;;;;;;;16.88;13.18;;;;;;;;;;5073228;28;20625;-66
2023/01/19 00:42:43;;;;;;;18.08;13.38;;;;;;;;;;5073422;28;20199;-66
2023/01/19 00:45:11;;;;;;;16.17;12.55;;;;;;;;;;5073396;28;20197;-66
2023/01/19 00:47:39;;;;;;;24.52;14.43;;;;;;;;;;5073406;28;20201;-66
2023/01/19 00:50:10;;;;;;;17.00;13.82;;;;;;;;;;5073693;28;20194;-66
2023/01/19 00:52:37;;;;;;;20.40;14.65;;;;;;;;;;5073913;28;20315;-66
2023/01/19 00:55:05;;;;;;;24.20;15.10;;;;;;;;;;5072855;28;20282;-66
2023/01/19 00:57:32;;;;;;;18.58;15.07;;;;;;;;;;5073868;28;20295;-66
2023/01/19 00:59:59;;;;;;;19.08;15.40;;;;;;;;;;5073140;28;20404;-66
2023/01/19 01:02:27;;;;;;;18.85;14.82;;;;;;;;;;5073593;28;20562;-66
2023/01/19 01:04:55;;;;;;;23.70;13.30;;;;;;;;;;5073179;28;20684;-66
2023/01/19 01:07:24;;;;;;;18.70;13.35;;;;;;;;;;5073405;28;20196;-65
2023/01/19 01:09:51;;;;;;;21.88;14.35;;;;;;;;;;5073458;28;20282;-66
2023/01/19 01:12:18;;;;;;;19.90;13.68;;;;;;;;;;5073337;28;20236;-66
2023/01/19 01:14:46;;;;;;;22.98;14.48;;;;;;;;;;5073151;28;20282;-66
2023/01/19 01:17:13;;;;;;;18.38;15.25;;;;;;;;;;5073455;28;20199;-66
2023/01/19 01:19:40;;;;;;;23.83;14.40;;;;;;;;;;5073295;28;20266;-66
2023/01/19 01:22:08;;;;;;;19.50;14.75;;;;;;;;;;5073193;28;20282;-66
2023/01/19 01:24:37;;;;;;;18.15;13.98;;;;;;;;;;5073299;28;20192;-66
2023/01/19 01:27:04;;;;;;;21.88;15.23;;;;;;;;;;5073307;28;20286;-66
2023/01/19 01:29:34;;;;;;;20.48;15.38;;;;;;;;;;5073171;28;20296;-66
2023/01/19 01:32:01;;;;;;;21.75;15.50;;;;;;;;;;5073130;28;20223;-66
2023/01/19 01:34:28;;;;;;;20.17;14.15;;;;;;;;;;5072903;28;20679;-66
2023/01/19 01:36:55;;;;;;;19.30;14.23;;;;;;;;;;5073311;28;20196;-65
2023/01/19 01:39:23;;;;;;;20.65;13.73;;;;;;;;;;5072766;28;20311;-65
2023/01/19 01:41:51;;;;;;;20.27;14.38;;;;;;;;;;5073169;28;20239;-65
2023/01/19 01:44:36;;;;;;;19.65;14.90;;;;;;;;;;5073154;28;20299;-65
2023/01/19 01:47:04;;;;;;;20.17;13.93;;;;;;;;;;5062860;28;20285;-65
2023/01/19 01:49:31;;;;;;;25.38;15.68;;;;;;;;;;5072796;28;20240;-65
2023/01/19 01:51:58;;;;;;;16.48;14.15;;;;;;;;;;5072973;28;20193;-65
2023/01/19 01:54:27;;;;;;;19.80;14.88;;;;;;;;;;5072753;28;20292;-65
2023/01/19 01:56:58;;;;;;;21.92;15.30;;;;;;;;;;5072878;28;20293;-65
2023/01/19 01:59:28;;;;;;;19.90;15.25;;;;;;;;;;5072877;28;20299;-65
2023/01/19 02:04:44;;;;;;;20.30;15.05;;;;;;;;;;5072780;28;20233;-66
2023/01/19 02:15:28;;;;;;;20.85;15.30;;;;;;;;;;5076547;28;20187;-65
2023/01/19 02:17:57;;;;;;;22.60;16.80;;;;;;;;;;5076472;28;20302;-66
2023/01/19 02:20:26;;;;;;;19.63;15.52;;;;;;;;;;5076054;28;20224;-65
2023/01/19 02:22:56;;;;;;;20.65;17.17;;;;;;;;;;5076061;28;20304;-65
2023/01/19 02:25:25;;;;;;;24.70;16.80;;;;;;;;;;5076721;28;20572;-66
2023/01/19 02:27:53;;;;;;;20.92;16.05;;;;;;;;;;5076122;28;20232;-66
2023/01/19 02:30:20;;;;;;;20.50;14.70;;;;;;;;;;5076245;28;20243;-65
2023/01/19 02:32:48;;;;;;;21.88;15.05;;;;;;;;;;5075768;28;20198;-66
2023/01/19 02:35:15;;;;;;;20.55;16.05;;;;;;;;;;5076548;28;20194;-66
2023/01/19 02:37:43;;;;;;;24.90;15.98;;;;;;;;;;5076024;28;20192;-66
2023/01/19 02:40:12;;;;;;;27.85;16.17;;;;;;;;;;5075970;28;20217;-66
2023/01/19 02:42:43;;;;;;;21.10;16.77;;;;;;;;;;5075813;28;20279;-66
2023/01/19 02:45:11;;;;;;;31.17;15.40;;;;;;;;;;5075776;28;20187;-66
2023/01/19 02:47:39;;;;;;;19.30;15.07;;;;;;;;;;5075941;28;20563;-66
2023/01/19 02:50:27;;;;;;;21.83;16.00;;;;;;;;;;5075588;28;20205;-66
2023/01/19 02:52:55;;;;;;;22.67;16.33;;;;;;;;;;5075397;28;20657;-66
2023/01/19 02:55:22;;;;;;;21.80;16.23;;;;;;;;;;5075522;28;20212;-66
2023/01/19 02:57:57;;;;;;;21.77;15.00;;;;;;;;;;5076001;28;20199;-66
2023/01/19 03:00:28;;;;;;;22.73;15.57;;;;;;;;;;5076067;28;20212;-66
2023/01/19 03:03:02;;;;;;;22.67;16.02;;;;;;;;;;5075869;28;20277;-66
2023/01/19 03:05:38;;;;;;;20.77;15.63;;;;;;;;;;5075891;28;20190;-66
2023/01/19 03:08:08;;;;;;;19.30;14.43;;;;;;;;;;5075803;28;20540;-66
2023/01/19 03:10:41;;;;;;;21.52;14.85;;;;;;;;;;5075665;28;20277;-66
2023/01/19 03:13:13;;;;;;;21.08;15.85;;;;;;;;;;5075768;28;20188;-66
2023/01/19 03:15:44;;;;;;;21.98;16.25;;;;;;;;;;5075854;28;20233;-65
2023/01/19 03:18:13;;;;;;;20.63;17.10;;;;;;;;;;5074722;28;20271;-66
2023/01/19 03:20:41;;;;;;;29.33;16.13;;;;;;;;;;5075317;28;20221;-66
2023/01/19 03:23:09;;;;;;;18.70;14.35;;;;;;;;;;5075458;28;20575;-66
2023/01/19 03:25:39;;;;;;;32.50;17.98;;;;;;;;;;5075282;28;20288;-66
2023/01/19 03:28:06;;;;;;;23.42;17.95;;;;;;;;;;5075205;28;20205;-66
2023/01/19 03:30:37;;;;;;;18.80;14.50;;;;;;;;;;5075151;28;20577;-66
2023/01/19 03:33:08;;;;;;;21.60;16.30;;;;;;;;;;5075091;28;20621;-66
2023/01/19 03:35:36;;;;;;;25.73;16.33;;;;;;;;;;5075540;28;20187;-66
2023/01/19 03:38:07;;;;;;;23.60;16.35;;;;;;;;;;5075200;28;20241;-66
2023/01/19 03:40:35;;;;;;;21.85;14.75;;;;;;;;;;5075646;28;20561;-66
2023/01/19 03:43:03;;;;;;;29.30;15.23;;;;;;;;;;5074778;28;20197;-66
2023/01/19 03:45:32;;;;;;;25.48;14.55;;;;;;;;;;5074516;28;20678;-66
2023/01/19 03:48:00;;;;;;;20.73;14.82;;;;;;;;;;5074422;28;20233;-66
2023/01/19 03:50:29;;;;;;;20.63;16.05;;;;;;;;;;5074472;28;20290;-66
2023/01/19 03:53:06;;;;;;;23.85;15.85;;;;;;;;;;5074929;28;20283;-66
2023/01/19 03:55:34;;;;;;;21.13;13.82;;;;;;;;;;5075502;28;20370;-66
2023/01/19 03:58:01;;;;;;;18.15;12.43;;;;;;;;;;5074535;28;20197;-66
2023/01/19 04:00:29;;;;;;;21.48;15.32;;;;;;;;;;5074213;28;20707;-66
2023/01/19 04:02:56;;;;;;;23.13;15.00;;;;;;;;;;5074055;28;20227;-66
2023/01/19 04:05:24;;;;;;;19.25;13.93;;;;;;;;;;5074400;28;20560;-66
2023/01/19 04:07:52;;;;;;;20.42;15.25;;;;;;;;;;5074343;28;20204;-66
2023/01/19 04:10:20;;;;;;;20.60;15.40;;;;;;;;;;5074696;28;20679;-66
2023/01/19 04:12:47;;;;;;;19.92;13.45;;;;;;;;;;5074473;28;20243;-66
2023/01/19 04:15:14;;;;;;;21.70;14.88;;;;;;;;;;5074448;28;20554;-66
2023/01/19 04:17:42;;;;;;;21.58;14.25;;;;;;;;;;5074186;28;20652;-66
2023/01/19 04:20:10;;;;;;;24.60;14.23;;;;;;;;;;5074344;28;20325;-66
2023/01/19 04:22:39;;;;;;;20.50;13.15;;;;;;;;;;5074068;28;20551;-67
2023/01/19 04:25:07;;;;;;;20.63;14.45;;;;;;;;;;5073806;28;20203;-66
2023/01/19 04:27:34;;;;;;;24.63;13.77;;;;;;;;;;5074202;28;20192;-66
2023/01/19 04:30:02;;;;;;;19.60;12.48;;;;;;;;;;5072990;28;20296;-66
2023/01/19 04:32:29;;;;;;;25.45;13.85;;;;;;;;;;5073901;28;20196;-66
2023/01/19 04:34:56;;;;;;;20.08;15.15;;;;;;;;;;5073520;28;20288;-67
2023/01/19 04:37:24;;;;;;;18.48;14.15;;;;;;;;;;5073869;28;20221;-66
2023/01/19 04:39:52;;;;;;;19.63;13.27;;;;;;;;;;5073517;28;20216;-66
2023/01/19 04:42:20;;;;;;;17.77;13.13;;;;;;;;;;5073973;28;20283;-66
2023/01/19 04:44:47;;;;;;;15.40;12.57;;;;;;;;;;5073775;28;20268;-66
2023/01/19 04:47:15;;;;;;;20.73;14.05;;;;;;;;;;5073400;28;20231;-66
2023/01/19 04:49:42;;;;;;;22.38;13.23;;;;;;;;;;5073737;28;20222;-66
2023/01/19 04:52:09;;;;;;;19.63;13.90;;;;;;;;;;5073388;28;20201;-66
2023/01/19 04:54:36;;;;;;;16.70;12.43;;;;;;;;;;5073583;28;20206;-66
2023/01/19 04:57:05;;;;;;;21.98;15.93;;;;;;;;;;5073554;28;20282;-67
2023/01/19 04:59:32;;;;;;;22.80;16.35;;;;;;;;;;5092955;28;20310;-66
2023/01/19 05:01:59;;;;;;;23.45;17.42;;;;;;;;;;5092899;28;20286;-67
2023/01/19 05:04:26;;;;;;;22.92;16.10;;;;;;;;;;5091984;28;20552;-67
2023/01/19 05:06:54;;;;;;;27.95;16.15;;;;;;;;;;5092982;28;20279;-66
2023/01/19 05:09:22;;;;;;;20.58;15.55;;;;;;;;;;5093047;28;20684;-67
2023/01/19 05:11:49;;;;;;;22.95;16.00;;;;;;;;;;5092775;28;20250;-67
2023/01/19 05:14:17;;;;;;;21.73;15.27;;;;;;;;;;5093260;28;20242;-66
2023/01/19 05:16:45;;;;;;;19.42;13.77;;;;;;;;;;5093375;28;20281;-66
2023/01/19 05:19:12;;;;;;;18.70;15.20;;;;;;;;;;5092733;28;20287;-66
2023/01/19 05:21:39;;;;;;;18.98;14.38;;;;;;;;;;5093522;28;20281;-65
2023/01/19 05:24:07;;;;;;;17.63;13.55;;;;;;;;;;5093112;28;20194;-66
2023/01/19 05:26:34;;;;;;;18.30;12.15;;;;;;;;;;5093487;28;20280;-65
2023/01/19 05:29:01;;;;;;;17.65;13.50;;;;;;;;;;5093463;28;20311;-65
2023/01/19 05:31:30;;;;;;;18.02;13.60;;;;;;;;;;5092832;28;20282;-65
2023/01/19 05:33:57;;;;;;;16.17;13.73;;;;;;;;;;5093418;28;20224;-66
2023/01/19 05:36:24;;;;;;;17.17;13.30;;;;;;;;;;5092981;28;20200;-66
2023/01/19 05:38:52;;;;;;;13.88;12.43;;;;;;;;;;5092985;28;20277;-66
2023/01/19 05:41:19;;;;;;;13.25;10.63;;;;;;;;;;5096499;28;20228;-66
2023/01/19 05:43:46;;;;;;;16.10;13.25;;;;;;;;;;5097322;28;20560;-66
2023/01/19 05:46:13;;;;;;;16.05;12.73;;;;;;;;;;5097448;28;20290;-65
2023/01/19 05:48:42;;;;;;;17.30;12.13;;;;;;;;;;5096981;28;20247;-65
2023/01/19 05:51:09;;;;;;;15.68;11.10;;;;;;;;;;5096876;28;20233;-65
2023/01/19 05:53:36;;;;;;;13.82;11.05;;;;;;;;;;5097220;28;20303;-65
2023/01/19 05:56:04;;;;;;;19.55;12.07;;;;;;;;;;5096926;28;20277;-65
2023/01/19 05:58:33;;;;;;;14.38;12.60;;;;;;;;;;5096690;28;20201;-66
2023/01/19 06:01:04;;;;;;;20.00;13.25;;;;;;;;;;5096990;28;20321;-65
2023/01/19 06:03:31;;;;;;;18.63;12.10;;;;;;;;;;5097042;28;20244;-65
2023/01/19 06:06:00;;;;;;;13.77;10.30;;;;;;;;;;5096841;28;20193;-65
2023/01/19 06:08:27;;;;;;;15.85;11.68;;;;;;;;;;5096754;28;20282;-65
2023/01/19 06:10:55;;;;;;;18.30;13.82;;;;;;;;;;5096252;28;20287;-66
2023/01/19 06:13:22;;;;;;;13.27;10.13;;;;;;;;;;5096519;28;20660;-66
2023/01/19 06:15:50;;;;;;;16.60;12.45;;;;;;;;;;5096435;28;20701;-66
2023/01/19 06:18:17;;;;;;;15.95;11.32;;;;;;;;;;5096288;28;20241;-66
2023/01/19 06:20:44;;;;;;;15.10;11.75;;;;;;;;;;5096233;28;20309;-66
2023/01/19 06:23:16;;;;;;;14.35;10.15;;;;;;;;;;5096781;28;20194;-66
2023/01/19 06:25:45;;;;;;;13.98;11.25;;;;;;;;;;5097156;28;20202;-66
2023/01/19 06:28:13;;;;;;;16.25;11.40;;;;;;;;;;5096456;28;20201;-65
2023/01/19 06:30:41;;;;;;;13.57;11.65;;;;;;;;;;5096942;28;20689;-66
2023/01/19 06:33:08;;;;;;;15.15;11.73;;;;;;;;;;5096854;28;20224;-66
2023/01/19 06:35:35;;;;;;;15.18;11.18;;;;;;;;;;5096335;28;20194;-65
2023/01/19 06:38:03;;;;;;;13.70;10.93;;;;;;;;;;5095846;28;20289;-66
2023/01/19 06:40:30;;;;;;;14.10;12.00;;;;;;;;;;5095994;28;20301;-66
2023/01/19 06:42:58;;;;;;;16.02;11.02;;;;;;;;;;5095972;28;20206;-66
2023/01/19 06:45:26;;;;;;;13.27;10.55;;;;;;;;;;5095861;28;20210;-65
2023/01/19 06:47:53;;;;;;;13.00;11.23;;;;;;;;;;5096347;28;20290;-66
2023/01/19 06:50:21;;;;;;;11.27;8.75;;;;;;;;;;5095873;28;20202;-66
2023/01/19 06:52:50;;;;;;;11.30;9.48;;;;;;;;;;5095075;28;20199;-66
2023/01/19 06:55:17;;;;;;;14.80;11.52;;;;;;;;;;5096117;28;20652;-66
2023/01/19 06:57:45;;;;;;;12.45;9.65;;;;;;;;;;5095227;28;20281;-66
2023/01/19 07:00:14;;;;;;;12.75;10.52;;;;;;;;;;5095623;28;20257;-66
2023/01/19 07:02:42;;;;;;;12.57;9.18;;;;;;;;;;5096068;28;20258;-66
2023/01/19 07:05:10;;;;;;;10.80;8.55;;;;;;;;;;5095415;28;20208;-66
2023/01/19 07:07:38;;;;;;;14.00;11.07;;;;;;;;;;5095996;28;20202;-66
2023/01/19 07:10:06;;;;;;;12.63;9.50;;;;;;;;;;5095868;28;20193;-66
2023/01/19 07:12:34;;;;;;;12.48;9.65;;;;;;;;;;5095932;28;20226;-72
2023/01/19 07:15:01;;;;;;;15.07;11.82;;;;;;;;;;5095424;28;20194;-65
2023/01/19 07:17:30;;;;;;;19.13;12.05;;;;;;;;;;5095391;28;20284;-66
2023/01/19 07:19:57;;;;;;;13.40;9.70;;;;;;;;;;5095242;28;20232;-66
2023/01/19 07:22:24;;;;;;;14.27;10.68;;;;;;;;;;5095421;28;20229;-66
2023/01/19 07:24:51;;;;;;;13.32;9.35;;;;;;;;;;5095782;28;20191;-66
2023/01/19 07:27:19;;;;;;;13.18;10.43;;;;;;;;;;5095072;28;20197;-66
2023/01/19 07:29:46;;;;;;;12.40;9.52;;;;;;;;;;5095381;28;20288;-66
2023/01/19 07:32:13;;;;;;;14.73;9.50;;;;;;;;;;5095003;28;20278;-66
2023/01/19 07:34:42;;;;;;;17.55;10.50;;;;;;;;;;5095316;28;20194;-66
2023/01/19 07:37:09;;;;;;;10.05;7.97;;;;;;;;;;5095400;28;20197;-66
2023/01/19 07:39:37;;;;;;;13.20;10.05;;;;;;;;;;5094993;28;20289;-66
2023/01/19 07:42:04;;;;;;;10.05;7.53;;;;;;;;;;5094698;28;20317;-66
2023/01/19 07:44:31;;;;;;;11.63;8.52;;;;;;;;;;5094869;28;20242;-66
2023/01/19 07:46:59;;;;;;;11.02;8.65;;;;;;;;;;5094791;28;20556;-66
2023/01/19 07:49:26;;;;;;;12.40;10.52;;;;;;;;;;5095530;28;20285;-66
2023/01/19 07:51:55;;;;;;;13.63;9.25;;;;;;;;;;5094966;28;20316;-66
2023/01/19 07:54:23;;;;;;;15.30;9.13;;;;;;;;;;5094669;28;20201;-67
2023/01/19 07:56:50;;;;;;;11.77;9.70;;;;;;;;;;5094536;28;20194;-66
2023/01/19 07:59:17;;;;;;;11.20;7.97;;;;;;;;;;5095445;28;20193;-66
2023/01/19 08:01:44;;;;;;;9.43;7.60;;;;;;;;;;5094689;28;20703;-66
2023/01/19 08:04:12;;;;;;;15.18;9.65;;;;;;;;;;5093468;28;20229;-66
2023/01/19 08:06:40;;;;;;;14.88;11.85;;;;;;;;;;5094635;28;20198;-66
2023/01/19 08:09:08;;;;;;;13.45;9.52;;;;;;;;;;5094710;28;20289;-65
2023/01/19 08:11:36;;;;;;;14.88;11.40;;;;;;;;;;5094246;28;20226;-65
2023/01/19 08:14:03;;;;;;;14.57;8.45;;;;;;;;;;5094558;28;20217;-65
2023/01/19 08:16:31;;;;;;;17.38;11.85;;;;;;;;;;5094770;28;20278;-65
2023/01/19 08:18:58;;;;;;;14.25;11.48;;;;;;;;;;5094900;28;20197;-65
2023/01/19 08:21:25;;;;;;;16.85;10.82;;;;;;;;;;5093942;28;20773;-65
2023/01/19 08:23:53;;;;;;;10.15;8.60;;;;;;;;;;5094121;28;20281;-65
2023/01/19 08:26:27;;;;;;;10.80;8.25;;;;;;;;;;5093973;28;20198;-65
2023/01/19 08:28:54;;;;;;;16.95;11.57;;;;;;;;;;5094094;28;20193;-65
2023/01/19 08:31:21;;;;;;;16.50;13.13;;;;;;;;;;5094439;28;20230;-65
2023/01/19 08:33:48;;;;;;;17.67;11.80;;;;;;;;;;5093962;28;20285;-65
2023/01/19 08:36:16;;;;;;;18.58;12.45;;;;;;;;;;5094093;28;20531;-65
2023/01/19 08:38:44;;;;;;;18.08;12.45;;;;;;;;;;5093896;28;20225;-65
2023/01/19 08:41:12;;;;;;;18.33;11.38;;;;;;;;;;5093934;28;20314;-65
2023/01/19 08:43:40;;;;;;;25.35;13.57;;;;;;;;;;5094050;28;20195;-65
2023/01/19 08:46:08;;;;;;;18.90;12.30;;;;;;;;;;5094059;28;20245;-65
2023/01/19 08:48:35;;;;;;;27.60;13.13;;;;;;;;;;5093925;28;20600;-65
2023/01/19 08:51:02;;;;;;;17.02;12.02;;;;;;;;;;5093596;28;20225;-65
2023/01/19 08:53:29;;;;;;;17.25;12.25;;;;;;;;;;5093901;28;20280;-65
2023/01/19 08:55:58;;;;;;;19.38;12.02;;;;;;;;;;5093590;28;20240;-65
2023/01/19 08:58:26;;;;;;;14.35;10.70;;;;;;;;;;5093604;28;20665;-65
2023/01/19 09:00:54;;;;;;;22.23;13.30;;;;;;;;;;5093787;28;20224;-65
2023/01/19 09:03:22;;;;;;;17.40;12.18;;;;;;;;;;5093721;28;20226;-65
2023/01/19 09:05:49;;;;;;;18.23;9.20;;;;;;;;;;5093513;28;20201;-65
2023/01/19 09:08:17;;;;;;;24.77;11.80;;;;;;;;;;5093996;28;20200;-65
2023/01/19 09:10:46;;;;;;;20.95;10.63;;;;;;;;;;5093294;28;20202;-65
2023/01/19 09:13:13;;;;;;;27.23;12.82;;;;;;;;;;5093335;28;20189;-65
2023/01/19 09:15:41;;;;;;;16.20;10.93;;;;;;;;;;5093396;28;20269;-65
2023/01/19 09:18:12;;;;;;;11.18;7.63;;;;;;;;;;5093549;28;20243;-65
2023/01/19 09:20:41;;;;;;;14.30;9.60;;;;;;;;;;5093777;28;20206;-65
2023/01/19 09:23:09;;;;;;;20.50;10.90;;;;;;;;;;5093505;28;20219;-65
2023/01/19 09:25:37;;;;;;;17.65;8.88;;;;;;;;;;5093565;28;20288;-65
2023/01/19 09:28:04;;;;;;;10.60;7.32;;;;;;;;;;5093815;28;20215;-65
2023/01/19 09:30:32;;;;;;;13.55;10.75;;;;;;;;;;5093258;28;20731;-65
2023/01/19 09:33:03;;;;;;;12.23;10.07;;;;;;;;;;5093106;28;20275;-65
2023/01/19 09:35:31;;;;;;;9.93;7.53;;;;;;;;;;5093708;28;20697;-65
2023/01/19 09:37:59;;;;;;;11.57;7.90;;;;;;;;;;5093084;28;20674;-65
2023/01/19 09:40:26;;;;;;;15.60;10.07;;;;;;;;;;5092882;28;20237;-65
2023/01/19 09:42:56;;;;;;;14.73;8.60;;;;;;;;;;5093816;28;20283;-65
2023/01/19 09:45:27;;;;;;;16.02;10.15;;;;;;;;;;5093085;28;20190;-65
2023/01/19 09:47:55;;;;;;;10.80;7.07;;;;;;;;;;5092978;28;20281;-65
2023/01/19 09:50:25;;;;;;;15.57;9.70;;;;;;;;;;5093603;28;20216;-65
2023/01/19 09:52:56;;;;;;;13.60;9.55;;;;;;;;;;5092944;28;20277;-64
2023/01/19 09:55:25;;;;;;;14.90;8.57;;;;;;;;;;5093268;28;20617;-65
2023/01/19 09:57:53;;;;;;;11.52;9.13;;;;;;;;;;5093193;28;20194;-65
2023/01/19 10:00:21;;;;;;;12.52;7.57;;;;;;;;;;5093237;28;20573;-65
2023/01/19 10:02:51;;;;;;;14.45;8.82;;;;;;;;;;5093096;28;20300;-65
2023/01/19 10:05:26;;;;;;;16.90;10.95;;;;;;;;;;5092928;28;20241;-65
2023/01/19 10:08:02;;;;;;;12.88;7.97;;;;;;;;;;5093259;28;20539;-65
2023/01/19 10:10:31;;;;;;;13.82;10.10;;;;;;;;;;5093147;28;20187;-65
2023/01/19 10:13:01;;;;;;;13.15;8.57;;;;;;;;;;5093184;28;20320;-65
2023/01/19 10:15:33;;;;;;;11.23;8.05;;;;;;;;;;5092816;28;20192;-65
2023/01/19 10:18:07;;;;;;;18.42;9.32;;;;;;;;;;5092937;28;20701;-65
2023/01/19 10:20:38;;;;;;;16.42;10.15;;;;;;;;;;5093223;28;20187;-65
2023/01/19 10:23:19;;;;;;;16.17;10.88;;;;;;;;;;5092713;28;20229;-65
2023/01/19 10:25:47;;;;;;;15.82;7.95;;;;;;;;;;5093284;28;20268;-65
2023/01/19 10:28:14;;;;;;;15.95;9.38;;;;;;;;;;5095768;28;20192;-65
2023/01/19 10:30:43;;;;;;;16.10;10.38;;;;;;;;;;5096369;28;20204;-65
2023/01/19 10:33:12;;;;;;;14.93;9.65;;;;;;;;;;5096740;28;20204;-66
2023/01/19 10:35:39;;;;;;;15.68;9.68;;;;;;;;;;5096252;28;20630;-65
2023/01/19 10:38:12;;;;;;;15.48;9.70;;;;;;;;;;5096106;28;20199;-66
2023/01/19 10:40:43;;;;;;;15.02;9.48;;;;;;;;;;5096720;28;20604;-66
2023/01/19 10:43:29;;;;;;;21.75;10.43;;;;;;;;;;5096006;28;20242;-66
2023/01/19 10:45:56;;;;;;;16.73;9.32;;;;;;;;;;5096032;28;20713;-66
2023/01/19 10:48:24;;;;;;;16.25;11.80;;;;;;;;;;5096623;28;20202;-66
2023/01/19 10:51:02;;;;;;;15.48;9.43;;;;;;;;;;5096391;28;20285;-66
2023/01/19 10:53:31;;;;;;;23.02;12.10;;;;;;;;;;5095881;28;20192;-66
2023/01/19 10:56:13;;;;;;;13.40;11.10;;;;;;;;;;5096168;28;20199;-66
2023/01/19 10:58:40;;;;;;;17.30;10.75;;;;;;;;;;5096128;28;20184;-66
2023/01/19 11:01:14;;;;;;;12.57;10.32;;;;;;;;;;5095950;28;20201;-66
2023/01/19 11:03:42;;;;;;;20.58;11.80;;;;;;;;;;5096284;28;20356;-66
2023/01/19 11:06:30;;;;;;;19.50;12.95;;;;;;;;;;5095658;28;20741;-66
2023/01/19 11:09:16;;;;;;;17.27;12.32;;;;;;;;;;5091120;28;20625;-65
2023/01/19 11:11:46;;;;;;;16.40;10.20;;;;;;;;;;5096021;28;20220;-66
2023/01/19 11:14:14;;;;;;;20.33;13.25;;;;;;;;;;5095388;28;20227;-65
2023/01/19 11:16:42;;;;;;;35.92;13.48;;;;;;;;;;5096031;28;20281;-65
2023/01/19 11:19:18;;;;;;;24.73;13.90;;;;;;;;;;5095598;28;20285;-66
2023/01/19 11:21:45;;;;;;;21.50;14.90;;;;;;;;;;5095329;28;20303;-65
2023/01/19 11:24:15;;;;;;;21.35;14.43;;;;;;;;;;5095746;28;20235;-66
2023/01/19 11:26:43;;;;;;;24.40;14.38;;;;;;;;;;5095696;28;20229;-66
2023/01/19 11:29:17;;;;;;;19.80;14.20;;;;;;;;;;5095478;28;20203;-65
2023/01/19 11:31:44;;;;;;;16.52;12.82;;;;;;;;;;5095242;28;20188;-65
2023/01/19 11:34:23;;;;;;;27.58;15.15;;;;;;;;;;5095291;28;20227;-65
2023/01/19 11:36:56;;;;;;;23.40;16.15;;;;;;;;;;5095930;28;20306;-65
2023/01/19 11:39:26;;;;;;;28.55;14.68;;;;;;;;;;5094692;28;20652;-65
2023/01/19 11:41:55;;;;;;;20.60;12.60;;;;;;;;;;5095482;28;20227;-65
2023/01/19 11:44:24;;;;;;;24.75;15.32;;;;;;;;;;5095040;28;20216;-65
2023/01/19 11:46:54;;;;;;;18.25;9.38;;;;;;;;;;5094880;28;20291;-65
2023/01/19 11:49:22;;;;;;;24.33;13.75;;;;;;;;;;5094706;28;20196;-65
2023/01/19 11:51:52;;;;;;;19.35;11.98;;;;;;;;;;5094926;28;20286;-65
2023/01/19 11:54:22;;;;;;;25.98;14.32;;;;;;;;;;5095110;28;20302;-65
2023/01/19 11:56:51;;;;;;;21.55;13.63;;;;;;;;;;5095531;28;20298;-65
2023/01/19 11:59:19;;;;;;;23.83;16.30;;;;;;;;;;5094779;28;20552;-65
2023/01/19 12:01:48;;;;;;;26.60;16.48;;;;;;;;;;5095101;28;20276;-65
2023/01/19 12:04:18;;;;;;;26.52;16.63;;;;;;;;;;5095136;28;20291;-65
2023/01/19 12:06:48;;;;;;;26.38;14.05;;;;;;;;;;5094822;28;20354;-65
2023/01/19 12:09:18;;;;;;;21.63;15.98;;;;;;;;;;5094728;28;20188;-65
2023/01/19 12:11:47;;;;;;;21.77;16.58;;;;;;;;;;5094071;28;20322;-65
2023/01/19 12:14:17;;;;;;;24.80;16.85;;;;;;;;;;5094534;28;20226;-65
2023/01/19 12:16:45;;;;;;;27.73;16.88;;;;;;;;;;5094404;28;20193;-65
2023/01/19 12:19:16;;;;;;;22.75;13.95;;;;;;;;;;5094514;28;20203;-65
2023/01/19 12:21:46;;;;;;;30.92;14.85;;;;;;;;;;5094315;28;20211;-65
2023/01/19 12:24:16;;;;;;;21.40;13.93;;;;;;;;;;5094101;28;20275;-66
2023/01/19 12:26:46;;;;;;;24.90;15.15;;;;;;;;;;5093933;28;20214;-65
2023/01/19 12:29:18;;;;;;;28.45;15.43;;;;;;;;;;5094670;28;20274;-65
2023/01/19 12:31:46;;;;;;;24.63;15.65;;;;;;;;;;5094395;28;20218;-65
2023/01/19 12:34:31;;;;;;;20.25;12.50;;;;;;;;;;5094210;28;20611;-65
2023/01/19 12:37:01;;;;;;;26.35;14.95;;;;;;;;;;5094375;28;20185;-65
2023/01/19 12:39:28;;;;;;;26.23;14.05;;;;;;;;;;5094130;28;20189;-65
2023/01/19 12:42:05;;;;;;;16.75;12.25;;;;;;;;;;5093802;28;20223;-65
2023/01/19 12:44:34;;;;;;;24.75;12.27;;;;;;;;;;5094016;28;20631;-65
2023/01/19 12:47:18;;;;;;;20.45;14.40;;;;;;;;;;5093744;28;20242;-65
2023/01/19 12:49:47;;;;;;;17.73;14.35;;;;;;;;;;5093501;28;20180;-65
2023/01/19 12:52:29;;;;;;;19.73;13.07;;;;;;;;;;5093843;28;20254;-65
2023/01/19 12:55:01;;;;;;;30.52;16.20;;;;;;;;;;5091753;28;20214;-65
2023/01/19 12:57:32;;;;;;;19.20;15.50;;;;;;;;;;5094104;28;20232;-65
2023/01/19 13:00:01;;;;;;;28.35;16.00;;;;;;;;;;5094276;28;20266;-65
2023/01/19 13:02:42;;;;;;;26.13;14.82;;;;;;;;;;5093389;28;20303;-65
2023/01/19 13:05:16;;;;;;;29.27;15.63;;;;;;;;;;5094054;28;20623;-64
2023/01/19 13:08:13;;;;;;;24.27;14.73;;;;;;;;;;5093414;28;20286;-65
2023/01/19 13:11:00;;;;;;;22.98;15.23;;;;;;;;;;5093483;28;20648;-65
2023/01/19 13:13:28;;;;;;;27.65;14.82;;;;;;;;;;5093994;28;20188;-65
2023/01/19 13:15:58;;;;;;;23.38;13.88;;;;;;;;;;5093229;28;20200;-65
2023/01/19 13:18:27;;;;;;;23.38;14.52;;;;;;;;;;5093631;28;20294;-65
2023/01/19 13:20:55;;;;;;;25.75;14.20;;;;;;;;;;5093799;28;20290;-65
2023/01/19 13:23:24;;;;;;;22.10;14.23;;;;;;;;;;5093468;28;20216;-64
2023/01/19 13:25:53;;;;;;;26.17;15.20;;;;;;;;;;5093445;28;20620;-64
2023/01/19 13:28:22;;;;;;;31.80;15.82;;;;;;;;;;5093540;28;20630;-65
2023/01/19 13:30:55;;;;;;;26.80;15.63;;;;;;;;;;5094105;28;20542;-65
2023/01/19 13:33:27;;;;;;;23.55;15.00;;;;;;;;;;5093220;28;20213;-65
2023/01/19 13:35:57;;;;;;;18.73;11.18;;;;;;;;;;5093559;28;20601;-64
2023/01/19 13:38:25;;;;;;;28.13;15.25;;;;;;;;;;5093153;28;20234;-64
2023/01/19 13:40:53;;;;;;;22.73;15.15;;;;;;;;;;5093090;28;20197;-64
2023/01/19 13:43:22;;;;;;;21.17;14.40;;;;;;;;;;5093340;28;20654;-64
2023/01/19 13:45:51;;;;;;;24.50;14.73;;;;;;;;;;5093284;28;20254;-64
2023/01/19 13:48:21;;;;;;;21.35;14.65;;;;;;;;;;5093697;28;20716;-64
2023/01/19 13:50:58;;;;;;;33.10;14.75;;;;;;;;;;5092775;28;20197;-64
2023/01/19 13:53:25;;;;;;;22.27;14.05;;;;;;;;;;5093547;28;20469;-65
2023/01/19 13:56:09;;;;;;;23.90;13.55;;;;;;;;;;5092884;28;20287;-65
2023/01/19 13:58:37;;;;;;;20.92;13.63;;;;;;;;;;5092921;28;20283;-65
2023/01/19 14:01:04;;;;;;;19.67;13.32;;;;;;;;;;5093204;28;20197;-64
2023/01/19 14:03:31;;;;;;;18.00;13.00;;;;;;;;;;5097286;28;20216;-65
2023/01/19 14:06:00;;;;;;;18.38;11.75;;;;;;;;;;5089237;28;20539;-65
2023/01/19 14:08:30;;;;;;;22.60;12.85;;;;;;;;;;5084246;28;20601;-65
2023/01/19 14:11:01;;;;;;;33.10;14.20;;;;;;;;;;5095517;28;20262;-65
2023/01/19 14:13:29;;;;;;;25.92;14.30;;;;;;;;;;5096087;28;20228;-65
2023/01/19 14:15:58;;;;;;;26.63;12.30;;;;;;;;;;5096088;28;20288;-64
2023/01/19 14:18:27;;;;;;;17.90;11.65;;;;;;;;;;5096341;28;20624;-69
2023/01/19 14:20:56;;;;;;;21.15;12.18;;;;;;;;;;5096138;28;20227;-65
2023/01/19 14:23:45;;;;;;;21.02;13.50;;;;;;;;;;5095955;28;20216;-65
2023/01/19 14:26:31;;;;;;;23.70;13.18;;;;;;;;;;5096787;28;20191;-65
2023/01/19 14:28:58;;;;;;;27.23;13.98;;;;;;;;;;5095904;28;20680;-65
2023/01/19 14:31:27;;;;;;;40.05;14.02;;;;;;;;;;5096226;28;20673;-65
2023/01/19 14:33:57;;;;;;;29.15;13.45;;;;;;;;;;5096725;28;20203;-65
2023/01/19 14:36:29;;;;;;;23.33;13.63;;;;;;;;;;5096889;28;20293;-65
2023/01/19 14:38:59;;;;;;;26.65;13.70;;;;;;;;;;5096719;28;20248;-65
2023/01/19 14:41:28;;;;;;;33.15;15.15;;;;;;;;;;5095550;28;20257;-65